sensor_id;sensor_type;location;lat;lon;timestamp;temperature;humidity
22065;DHT22;11197;53.110;8.468;2024-02-21T00:01:25;9.50;99.90
22065;DHT22;11197;53.110;8.468;2024-02-21T00:03:51;9.50;99.90
22065;DHT22;11197;53.110;8.468;2024-02-21T00:06:17;9.60;99.90
22065;DHT22;11197;53.110;8.468;2024-02-21T00:08:42;9.60;99.90
22065;DHT22;11197;53.110;8.468;2024-02-21T00:11:08;9.60;99.90
22065;DHT22;11197;53.110;8.468;2024-02-21T00:13:34;9.60;99.90
22065;DHT22;11197;53.110;8.468;2024-02-21T00:16:01;9.60;99.90
22065;DHT22;11197;53.110;8.468;2024-02-21T00:18:27;9.50;99.90
22065;DHT22;11197;53.110;8.468;2024-02-21T00:20:53;9.60;99.90
22065;DHT22;11197;53.110;8.468;2024-02-21T00:23:19;9.60;99.90
22065;DHT22;11197;53.110;8.468;2024-02-21T00:25:45;9.60;99.90
22065;DHT22;11197;53.110;8.468;2024-02-21T00:28:10;9.60;99.90
22065;DHT22;11197;53.110;8.468;2024-02-21T00:30:37;9.60;99.90
22065;DHT22;11197;53.110;8.468;2024-02-21T00:33:04;9.60;99.90
22065;DHT22;11197;53.110;8.468;2024-02-21T00:35:29;9.60;99.90
22065;DHT22;11197;53.110;8.468;2024-02-21T00:37:55;9.60;99.90
22065;DHT22;11197;53.110;8.468;2024-02-21T00:40:22;9.60;99.90
22065;DHT22;11197;53.110;8.468;2024-02-21T00:42:48;9.60;99.90
22065;DHT22;11197;53.110;8.468;2024-02-21T00:45:14;9.60;99.90
22065;DHT22;11197;53.110;8.468;2024-02-21T00:47:40;9.60;99.90
22065;DHT22;11197;53.110;8.468;2024-02-21T00:50:06;9.60;99.90
22065;DHT22;11197;53.110;8.468;2024-02-21T00:52:33;9.60;99.90
22065;DHT22;11197;53.110;8.468;2024-02-21T00:54:59;9.60;99.90
22065;DHT22;11197;53.110;8.468;2024-02-21T00:57:25;9.60;99.90
22065;DHT22;11197;53.110;8.468;2024-02-21T00:59:51;9.60;99.90
22065;DHT22;11197;53.110;8.468;2024-02-21T01:02:17;9.60;99.90
22065;DHT22;11197;53.110;8.468;2024-02-21T01:04:43;9.60;99.90
22065;DHT22;11197;53.110;8.468;2024-02-21T01:07:09;9.60;99.90
22065;DHT22;11197;53.110;8.468;2024-02-21T01:09:34;9.60;99.90
22065;DHT22;11197;53.110;8.468;2024-02-21T01:12:00;9.60;99.90
22065;DHT22;11197;53.110;8.468;2024-02-21T01:14:26;9.60;99.90
22065;DHT22;11197;53.110;8.468;2024-02-21T01:16:51;9.60;99.90
22065;DHT22;11197;53.110;8.468;2024-02-21T01:19:17;9.60;99.90
22065;DHT22;11197;53.110;8.468;2024-02-21T01:21:43;9.60;99.90
22065;DHT22;11197;53.110;8.468;2024-02-21T01:24:09;9.60;99.90
22065;DHT22;11197;53.110;8.468;2024-02-21T01:26:35;9.60;99.90
22065;DHT22;11197;53.110;8.468;2024-02-21T01:29:00;9.60;99.90
22065;DHT22;11197;53.110;8.468;2024-02-21T01:31:26;9.70;99.90
22065;DHT22;11197;53.110;8.468;2024-02-21T01:33:52;9.60;99.90
22065;DHT22;11197;53.110;8.468;2024-02-21T01:36:17;9.60;99.90
22065;DHT22;11197;53.110;8.468;2024-02-21T01:38:43;9.60;99.90
22065;DHT22;11197;53.110;8.468;2024-02-21T01:41:09;9.60;99.90
22065;DHT22;11197;53.110;8.468;2024-02-21T01:43:35;9.60;99.90
22065;DHT22;11197;53.110;8.468;2024-02-21T01:46:01;9.60;99.90
22065;DHT22;11197;53.110;8.468;2024-02-21T01:48:27;9.60;99.90
22065;DHT22;11197;53.110;8.468;2024-02-21T01:50:54;9.60;99.90
22065;DHT22;11197;53.110;8.468;2024-02-21T01:53:29;9.60;99.90
22065;DHT22;11197;53.110;8.468;2024-02-21T01:55:55;9.60;99.90
22065;DHT22;11197;53.110;8.468;2024-02-21T01:58:22;9.50;99.90
22065;DHT22;11197;53.110;8.468;2024-02-21T02:00:48;9.50;99.90
22065;DHT22;11197;53.110;8.468;2024-02-21T02:03:14;9.50;99.90
22065;DHT22;11197;53.110;8.468;2024-02-21T02:08:10;9.50;99.90
22065;DHT22;11197;53.110;8.468;2024-02-21T02:10:37;9.50;99.90
22065;DHT22;11197;53.110;8.468;2024-02-21T02:13:03;9.50;99.90
22065;DHT22;11197;53.110;8.468;2024-02-21T02:15:40;9.50;99.90
22065;DHT22;11197;53.110;8.468;2024-02-21T02:18:07;9.50;99.90
22065;DHT22;11197;53.110;8.468;2024-02-21T02:20:33;9.50;99.90
22065;DHT22;11197;53.110;8.468;2024-02-21T02:22:59;9.60;99.90
22065;DHT22;11197;53.110;8.468;2024-02-21T02:25:26;9.60;99.90
22065;DHT22;11197;53.110;8.468;2024-02-21T02:27:53;9.60;99.90
22065;DHT22;11197;53.110;8.468;2024-02-21T02:30:19;9.60;99.90
22065;DHT22;11197;53.110;8.468;2024-02-21T02:32:45;9.60;99.90
22065;DHT22;11197;53.110;8.468;2024-02-21T02:35:12;9.60;99.90
22065;DHT22;11197;53.110;8.468;2024-02-21T02:37:37;9.60;99.90
22065;DHT22;11197;53.110;8.468;2024-02-21T02:40:07;9.60;99.90
22065;DHT22;11197;53.110;8.468;2024-02-21T02:42:33;9.60;99.90
22065;DHT22;11197;53.110;8.468;2024-02-21T02:44:58;9.60;99.90
22065;DHT22;11197;53.110;8.468;2024-02-21T02:47:24;9.60;99.90
22065;DHT22;11197;53.110;8.468;2024-02-21T02:49:50;9.60;99.90
22065;DHT22;11197;53.110;8.468;2024-02-21T02:52:17;9.60;99.90
22065;DHT22;11197;53.110;8.468;2024-02-21T02:54:44;9.60;99.90
22065;DHT22;11197;53.110;8.468;2024-02-21T02:57:09;9.60;99.90
22065;DHT22;11197;53.110;8.468;2024-02-21T02:59:35;9.60;99.90
22065;DHT22;11197;53.110;8.468;2024-02-21T03:02:01;9.60;99.90
22065;DHT22;11197;53.110;8.468;2024-02-21T03:04:27;9.60;99.90
22065;DHT22;11197;53.110;8.468;2024-02-21T03:06:53;9.60;99.90
22065;DHT22;11197;53.110;8.468;2024-02-21T03:09:19;9.60;99.90
22065;DHT22;11197;53.110;8.468;2024-02-21T03:11:44;9.60;99.90
22065;DHT22;11197;53.110;8.468;2024-02-21T03:14:10;9.60;99.90
22065;DHT22;11197;53.110;8.468;2024-02-21T03:16:36;9.60;99.90
22065;DHT22;11197;53.110;8.468;2024-02-21T03:19:02;9.60;99.90
22065;DHT22;11197;53.110;8.468;2024-02-21T03:21:28;9.60;99.90
22065;DHT22;11197;53.110;8.468;2024-02-21T03:23:54;9.60;99.90
22065;DHT22;11197;53.110;8.468;2024-02-21T03:26:20;9.60;99.90
22065;DHT22;11197;53.110;8.468;2024-02-21T03:28:45;9.60;99.90
22065;DHT22;11197;53.110;8.468;2024-02-21T03:31:12;9.50;99.90
22065;DHT22;11197;53.110;8.468;2024-02-21T03:33:41;9.50;99.90
22065;DHT22;11197;53.110;8.468;2024-02-21T03:36:13;9.50;99.90
22065;DHT22;11197;53.110;8.468;2024-02-21T03:38:39;9.50;99.90
22065;DHT22;11197;53.110;8.468;2024-02-21T03:41:05;9.50;99.90
22065;DHT22;11197;53.110;8.468;2024-02-21T03:43:31;9.50;99.90
22065;DHT22;11197;53.110;8.468;2024-02-21T03:45:57;9.50;99.90
22065;DHT22;11197;53.110;8.468;2024-02-21T03:48:23;9.40;99.90
22065;DHT22;11197;53.110;8.468;2024-02-21T03:50:48;9.40;99.90
22065;DHT22;11197;53.110;8.468;2024-02-21T03:53:14;9.40;99.90
22065;DHT22;11197;53.110;8.468;2024-02-21T03:55:40;9.30;99.90
22065;DHT22;11197;53.110;8.468;2024-02-21T03:58:05;9.30;99.90
22065;DHT22;11197;53.110;8.468;2024-02-21T04:00:31;9.30;99.90
22065;DHT22;11197;53.110;8.468;2024-02-21T04:02:57;9.30;99.90
22065;DHT22;11197;53.110;8.468;2024-02-21T04:05:23;9.30;99.90
22065;DHT22;11197;53.110;8.468;2024-02-21T04:07:48;9.30;99.90
22065;DHT22;11197;53.110;8.468;2024-02-21T04:10:14;9.20;99.90
22065;DHT22;11197;53.110;8.468;2024-02-21T04:12:40;9.30;99.90
22065;DHT22;11197;53.110;8.468;2024-02-21T04:15:06;9.20;99.90
22065;DHT22;11197;53.110;8.468;2024-02-21T04:17:31;9.20;99.90
22065;DHT22;11197;53.110;8.468;2024-02-21T04:20:13;9.20;99.90
22065;DHT22;11197;53.110;8.468;2024-02-21T04:22:49;9.20;99.90
22065;DHT22;11197;53.110;8.468;2024-02-21T04:25:14;9.20;99.90
22065;DHT22;11197;53.110;8.468;2024-02-21T04:27:40;9.20;99.90
22065;DHT22;11197;53.110;8.468;2024-02-21T04:30:07;9.20;99.90
22065;DHT22;11197;53.110;8.468;2024-02-21T04:32:33;9.20;99.90
22065;DHT22;11197;53.110;8.468;2024-02-21T04:34:59;9.20;99.90
22065;DHT22;11197;53.110;8.468;2024-02-21T04:37:24;9.30;99.90
22065;DHT22;11197;53.110;8.468;2024-02-21T04:39:50;9.30;99.90
22065;DHT22;11197;53.110;8.468;2024-02-21T04:42:16;9.20;99.90
22065;DHT22;11197;53.110;8.468;2024-02-21T04:44:42;9.30;99.90
22065;DHT22;11197;53.110;8.468;2024-02-21T04:47:09;9.20;99.90
22065;DHT22;11197;53.110;8.468;2024-02-21T04:49:34;9.30;99.90
22065;DHT22;11197;53.110;8.468;2024-02-21T04:52:01;9.30;99.90
22065;DHT22;11197;53.110;8.468;2024-02-21T04:54:27;9.30;99.90
22065;DHT22;11197;53.110;8.468;2024-02-21T04:56:52;9.20;99.90
22065;DHT22;11197;53.110;8.468;2024-02-21T04:59:18;9.30;99.90
22065;DHT22;11197;53.110;8.468;2024-02-21T05:01:44;9.20;99.90
22065;DHT22;11197;53.110;8.468;2024-02-21T05:04:10;9.20;99.90
22065;DHT22;11197;53.110;8.468;2024-02-21T05:06:39;9.20;99.90
22065;DHT22;11197;53.110;8.468;2024-02-21T05:09:06;9.20;99.90
22065;DHT22;11197;53.110;8.468;2024-02-21T05:11:31;9.20;99.90
22065;DHT22;11197;53.110;8.468;2024-02-21T05:13:57;9.20;99.90
22065;DHT22;11197;53.110;8.468;2024-02-21T05:16:23;9.20;99.90
22065;DHT22;11197;53.110;8.468;2024-02-21T05:18:49;9.20;99.90
22065;DHT22;11197;53.110;8.468;2024-02-21T05:21:15;9.20;99.90
22065;DHT22;11197;53.110;8.468;2024-02-21T05:23:40;9.20;99.90
22065;DHT22;11197;53.110;8.468;2024-02-21T05:26:06;9.20;99.90
22065;DHT22;11197;53.110;8.468;2024-02-21T05:28:32;9.20;99.90
22065;DHT22;11197;53.110;8.468;2024-02-21T05:30:58;9.20;99.90
22065;DHT22;11197;53.110;8.468;2024-02-21T05:33:24;9.20;99.90
22065;DHT22;11197;53.110;8.468;2024-02-21T05:35:50;9.20;99.90
22065;DHT22;11197;53.110;8.468;2024-02-21T05:38:17;9.20;99.90
22065;DHT22;11197;53.110;8.468;2024-02-21T05:40:44;9.20;99.90
22065;DHT22;11197;53.110;8.468;2024-02-21T05:43:10;9.20;99.90
22065;DHT22;11197;53.110;8.468;2024-02-21T05:45:36;9.20;99.90
22065;DHT22;11197;53.110;8.468;2024-02-21T05:48:04;9.20;99.90
22065;DHT22;11197;53.110;8.468;2024-02-21T05:50:29;9.20;99.90
22065;DHT22;11197;53.110;8.468;2024-02-21T05:52:56;9.20;99.90
22065;DHT22;11197;53.110;8.468;2024-02-21T05:55:22;9.20;99.90
22065;DHT22;11197;53.110;8.468;2024-02-21T05:57:48;9.20;99.90
22065;DHT22;11197;53.110;8.468;2024-02-21T06:00:14;9.20;99.90
22065;DHT22;11197;53.110;8.468;2024-02-21T06:02:40;9.20;99.90
22065;DHT22;11197;53.110;8.468;2024-02-21T06:05:07;9.20;99.90
22065;DHT22;11197;53.110;8.468;2024-02-21T06:07:33;9.20;99.90
22065;DHT22;11197;53.110;8.468;2024-02-21T06:10:02;9.20;99.90
22065;DHT22;11197;53.110;8.468;2024-02-21T06:12:28;9.20;99.90
22065;DHT22;11197;53.110;8.468;2024-02-21T06:14:54;9.20;99.90
22065;DHT22;11197;53.110;8.468;2024-02-21T06:17:20;9.20;99.90
22065;DHT22;11197;53.110;8.468;2024-02-21T06:19:46;9.20;99.90
22065;DHT22;11197;53.110;8.468;2024-02-21T06:22:12;9.20;99.90
22065;DHT22;11197;53.110;8.468;2024-02-21T06:24:38;9.20;99.90
22065;DHT22;11197;53.110;8.468;2024-02-21T06:27:04;9.20;99.90
22065;DHT22;11197;53.110;8.468;2024-02-21T06:29:32;9.20;99.90
22065;DHT22;11197;53.110;8.468;2024-02-21T06:31:58;9.20;99.90
22065;DHT22;11197;53.110;8.468;2024-02-21T06:34:24;9.20;99.90
22065;DHT22;11197;53.110;8.468;2024-02-21T06:36:50;9.20;99.90
22065;DHT22;11197;53.110;8.468;2024-02-21T06:39:16;9.20;99.90
22065;DHT22;11197;53.110;8.468;2024-02-21T06:41:42;9.20;99.90
22065;DHT22;11197;53.110;8.468;2024-02-21T06:44:08;9.20;99.90
22065;DHT22;11197;53.110;8.468;2024-02-21T06:46:34;9.20;99.90
22065;DHT22;11197;53.110;8.468;2024-02-21T06:49:01;9.20;99.90
22065;DHT22;11197;53.110;8.468;2024-02-21T06:51:27;9.20;99.90
22065;DHT22;11197;53.110;8.468;2024-02-21T06:53:53;9.20;99.90
22065;DHT22;11197;53.110;8.468;2024-02-21T06:56:19;9.20;99.90
22065;DHT22;11197;53.110;8.468;2024-02-21T06:58:46;9.20;99.90
22065;DHT22;11197;53.110;8.468;2024-02-21T07:01:12;9.20;99.90
22065;DHT22;11197;53.110;8.468;2024-02-21T07:03:37;9.20;99.90
22065;DHT22;11197;53.110;8.468;2024-02-21T07:06:03;9.20;99.90
22065;DHT22;11197;53.110;8.468;2024-02-21T07:08:29;9.20;99.90
22065;DHT22;11197;53.110;8.468;2024-02-21T07:10:55;9.20;99.90
22065;DHT22;11197;53.110;8.468;2024-02-21T07:13:21;9.20;99.90
22065;DHT22;11197;53.110;8.468;2024-02-21T07:15:48;9.20;99.90
22065;DHT22;11197;53.110;8.468;2024-02-21T07:18:14;9.20;99.90
22065;DHT22;11197;53.110;8.468;2024-02-21T07:20:40;9.20;99.90
22065;DHT22;11197;53.110;8.468;2024-02-21T07:23:08;9.20;99.90
22065;DHT22;11197;53.110;8.468;2024-02-21T07:25:34;9.20;99.90
22065;DHT22;11197;53.110;8.468;2024-02-21T07:28:00;9.20;99.90
22065;DHT22;11197;53.110;8.468;2024-02-21T07:30:25;9.20;99.90
22065;DHT22;11197;53.110;8.468;2024-02-21T07:32:51;9.20;99.90
22065;DHT22;11197;53.110;8.468;2024-02-21T07:35:20;9.20;99.90
22065;DHT22;11197;53.110;8.468;2024-02-21T07:37:46;9.20;99.90
22065;DHT22;11197;53.110;8.468;2024-02-21T07:40:16;9.20;99.90
22065;DHT22;11197;53.110;8.468;2024-02-21T07:42:42;9.20;99.90
22065;DHT22;11197;53.110;8.468;2024-02-21T07:45:09;9.20;99.90
22065;DHT22;11197;53.110;8.468;2024-02-21T07:47:36;9.20;99.90
22065;DHT22;11197;53.110;8.468;2024-02-21T07:50:02;9.20;99.90
22065;DHT22;11197;53.110;8.468;2024-02-21T07:52:28;9.20;99.90
22065;DHT22;11197;53.110;8.468;2024-02-21T07:54:54;9.30;99.90
22065;DHT22;11197;53.110;8.468;2024-02-21T07:57:20;9.30;99.90
22065;DHT22;11197;53.110;8.468;2024-02-21T07:59:45;9.30;99.90
22065;DHT22;11197;53.110;8.468;2024-02-21T08:02:16;9.40;99.90
22065;DHT22;11197;53.110;8.468;2024-02-21T08:04:42;9.40;99.90
22065;DHT22;11197;53.110;8.468;2024-02-21T08:07:09;9.40;99.90
22065;DHT22;11197;53.110;8.468;2024-02-21T08:09:35;9.40;99.90
22065;DHT22;11197;53.110;8.468;2024-02-21T08:12:02;9.40;99.90
22065;DHT22;11197;53.110;8.468;2024-02-21T08:14:28;9.40;99.90
22065;DHT22;11197;53.110;8.468;2024-02-21T08:16:53;9.40;99.90
22065;DHT22;11197;53.110;8.468;2024-02-21T08:19:21;9.40;99.90
22065;DHT22;11197;53.110;8.468;2024-02-21T08:21:48;9.40;99.90
22065;DHT22;11197;53.110;8.468;2024-02-21T08:24:16;9.50;99.90
22065;DHT22;11197;53.110;8.468;2024-02-21T08:26:45;9.50;99.90
22065;DHT22;11197;53.110;8.468;2024-02-21T08:29:12;9.50;99.90
22065;DHT22;11197;53.110;8.468;2024-02-21T08:31:38;9.50;99.90
22065;DHT22;11197;53.110;8.468;2024-02-21T08:34:08;9.50;99.90
22065;DHT22;11197;53.110;8.468;2024-02-21T08:36:38;9.50;99.90
22065;DHT22;11197;53.110;8.468;2024-02-21T08:39:06;9.50;99.90
22065;DHT22;11197;53.110;8.468;2024-02-21T08:41:33;9.50;99.90
22065;DHT22;11197;53.110;8.468;2024-02-21T08:43:59;9.50;99.90
22065;DHT22;11197;53.110;8.468;2024-02-21T08:46:25;9.50;99.90
22065;DHT22;11197;53.110;8.468;2024-02-21T08:48:52;9.50;99.90
22065;DHT22;11197;53.110;8.468;2024-02-21T08:51:19;9.50;99.90
22065;DHT22;11197;53.110;8.468;2024-02-21T08:53:48;9.50;99.90
22065;DHT22;11197;53.110;8.468;2024-02-21T08:56:15;9.50;99.90
22065;DHT22;11197;53.110;8.468;2024-02-21T08:58:41;9.50;99.90
22065;DHT22;11197;53.110;8.468;2024-02-21T09:01:07;9.50;99.90
22065;DHT22;11197;53.110;8.468;2024-02-21T09:03:36;9.50;99.90
22065;DHT22;11197;53.110;8.468;2024-02-21T09:06:06;9.50;99.90
22065;DHT22;11197;53.110;8.468;2024-02-21T09:08:32;9.50;99.90
22065;DHT22;11197;53.110;8.468;2024-02-21T09:10:59;9.50;99.90
22065;DHT22;11197;53.110;8.468;2024-02-21T09:13:25;9.50;99.90
22065;DHT22;11197;53.110;8.468;2024-02-21T09:15:50;9.50;99.90
22065;DHT22;11197;53.110;8.468;2024-02-21T09:18:16;9.50;99.90
22065;DHT22;11197;53.110;8.468;2024-02-21T09:20:42;9.50;99.90
22065;DHT22;11197;53.110;8.468;2024-02-21T09:23:09;9.50;99.90
22065;DHT22;11197;53.110;8.468;2024-02-21T09:25:34;9.50;99.90
22065;DHT22;11197;53.110;8.468;2024-02-21T09:28:01;9.50;99.90
22065;DHT22;11197;53.110;8.468;2024-02-21T09:30:27;9.60;99.90
22065;DHT22;11197;53.110;8.468;2024-02-21T09:32:53;9.50;99.90
22065;DHT22;11197;53.110;8.468;2024-02-21T09:35:19;9.50;99.90
22065;DHT22;11197;53.110;8.468;2024-02-21T09:37:48;9.60;99.90
22065;DHT22;11197;53.110;8.468;2024-02-21T09:40:15;9.50;99.90
22065;DHT22;11197;53.110;8.468;2024-02-21T09:42:47;9.50;99.90
22065;DHT22;11197;53.110;8.468;2024-02-21T09:50:29;9.50;99.90
22065;DHT22;11197;53.110;8.468;2024-02-21T09:52:57;9.50;99.90
22065;DHT22;11197;53.110;8.468;2024-02-21T09:55:26;9.50;99.90
22065;DHT22;11197;53.110;8.468;2024-02-21T09:57:53;9.50;99.90
22065;DHT22;11197;53.110;8.468;2024-02-21T10:00:19;9.50;99.90
22065;DHT22;11197;53.110;8.468;2024-02-21T10:02:48;9.40;99.90
22065;DHT22;11197;53.110;8.468;2024-02-21T10:05:15;9.40;99.90
22065;DHT22;11197;53.110;8.468;2024-02-21T10:07:41;9.40;99.90
22065;DHT22;11197;53.110;8.468;2024-02-21T10:10:07;9.40;99.90
22065;DHT22;11197;53.110;8.468;2024-02-21T10:12:33;9.40;99.90
22065;DHT22;11197;53.110;8.468;2024-02-21T10:15:06;9.50;99.90
22065;DHT22;11197;53.110;8.468;2024-02-21T10:17:32;9.50;99.90
22065;DHT22;11197;53.110;8.468;2024-02-21T10:20:11;9.50;99.90
22065;DHT22;11197;53.110;8.468;2024-02-21T10:22:38;9.50;99.90
22065;DHT22;11197;53.110;8.468;2024-02-21T10:25:12;9.50;99.90
22065;DHT22;11197;53.110;8.468;2024-02-21T10:27:38;9.50;99.90
22065;DHT22;11197;53.110;8.468;2024-02-21T10:30:12;9.50;99.90
22065;DHT22;11197;53.110;8.468;2024-02-21T10:32:52;9.50;99.90
22065;DHT22;11197;53.110;8.468;2024-02-21T10:35:31;9.50;99.90
22065;DHT22;11197;53.110;8.468;2024-02-21T10:37:58;9.50;99.90
22065;DHT22;11197;53.110;8.468;2024-02-21T10:40:25;9.50;99.90
22065;DHT22;11197;53.110;8.468;2024-02-21T10:42:59;9.60;99.90
22065;DHT22;11197;53.110;8.468;2024-02-21T10:45:32;9.60;99.90
22065;DHT22;11197;53.110;8.468;2024-02-21T10:48:10;9.60;99.90
22065;DHT22;11197;53.110;8.468;2024-02-21T10:53:23;9.70;99.90
22065;DHT22;11197;53.110;8.468;2024-02-21T10:55:58;9.70;99.90
22065;DHT22;11197;53.110;8.468;2024-02-21T10:58:28;9.70;99.90
22065;DHT22;11197;53.110;8.468;2024-02-21T11:00:55;9.70;99.90
22065;DHT22;11197;53.110;8.468;2024-02-21T11:03:21;9.80;99.90
22065;DHT22;11197;53.110;8.468;2024-02-21T11:05:48;9.80;99.90
22065;DHT22;11197;53.110;8.468;2024-02-21T11:08:14;9.80;99.90
22065;DHT22;11197;53.110;8.468;2024-02-21T11:10:46;9.90;99.90
22065;DHT22;11197;53.110;8.468;2024-02-21T11:13:11;9.90;99.90
22065;DHT22;11197;53.110;8.468;2024-02-21T11:15:39;10.00;99.90
22065;DHT22;11197;53.110;8.468;2024-02-21T11:18:05;10.00;99.90
22065;DHT22;11197;53.110;8.468;2024-02-21T11:20:38;10.10;99.90
22065;DHT22;11197;53.110;8.468;2024-02-21T11:23:04;10.10;99.90
22065;DHT22;11197;53.110;8.468;2024-02-21T11:25:30;10.10;99.90
22065;DHT22;11197;53.110;8.468;2024-02-21T11:28:05;10.20;99.90
22065;DHT22;11197;53.110;8.468;2024-02-21T11:30:35;10.20;99.90
22065;DHT22;11197;53.110;8.468;2024-02-21T11:33:06;10.20;99.90
22065;DHT22;11197;53.110;8.468;2024-02-21T11:35:33;10.30;99.90
22065;DHT22;11197;53.110;8.468;2024-02-21T11:38:10;10.30;99.90
22065;DHT22;11197;53.110;8.468;2024-02-21T11:40:39;10.30;99.90
22065;DHT22;11197;53.110;8.468;2024-02-21T11:43:06;10.30;99.90
22065;DHT22;11197;53.110;8.468;2024-02-21T11:45:31;10.30;99.90
22065;DHT22;11197;53.110;8.468;2024-02-21T11:47:59;10.40;99.90
22065;DHT22;11197;53.110;8.468;2024-02-21T11:50:26;10.40;99.90
22065;DHT22;11197;53.110;8.468;2024-02-21T11:52:54;10.40;99.90
22065;DHT22;11197;53.110;8.468;2024-02-21T11:55:21;10.40;99.90
22065;DHT22;11197;53.110;8.468;2024-02-21T11:57:50;10.40;99.90
22065;DHT22;11197;53.110;8.468;2024-02-21T12:00:18;10.50;99.90
22065;DHT22;11197;53.110;8.468;2024-02-21T12:02:46;10.50;99.90
22065;DHT22;11197;53.110;8.468;2024-02-21T12:05:12;10.50;99.90
22065;DHT22;11197;53.110;8.468;2024-02-21T12:07:38;10.50;99.90
22065;DHT22;11197;53.110;8.468;2024-02-21T12:10:10;10.50;99.90
22065;DHT22;11197;53.110;8.468;2024-02-21T12:12:37;10.50;99.90
22065;DHT22;11197;53.110;8.468;2024-02-21T12:15:07;10.60;99.90
22065;DHT22;11197;53.110;8.468;2024-02-21T12:17:34;10.60;99.90
22065;DHT22;11197;53.110;8.468;2024-02-21T12:20:06;10.60;99.90
22065;DHT22;11197;53.110;8.468;2024-02-21T12:22:43;10.60;99.90
22065;DHT22;11197;53.110;8.468;2024-02-21T12:25:19;10.70;99.90
22065;DHT22;11197;53.110;8.468;2024-02-21T12:27:46;10.70;99.90
22065;DHT22;11197;53.110;8.468;2024-02-21T12:30:12;10.70;99.90
22065;DHT22;11197;53.110;8.468;2024-02-21T12:32:38;10.60;99.90
22065;DHT22;11197;53.110;8.468;2024-02-21T12:35:04;10.70;99.90
22065;DHT22;11197;53.110;8.468;2024-02-21T12:37:29;10.70;99.90
22065;DHT22;11197;53.110;8.468;2024-02-21T12:39:55;10.70;99.90
22065;DHT22;11197;53.110;8.468;2024-02-21T12:42:21;10.70;99.90
22065;DHT22;11197;53.110;8.468;2024-02-21T12:44:49;10.60;99.90
22065;DHT22;11197;53.110;8.468;2024-02-21T12:47:14;10.70;99.90
22065;DHT22;11197;53.110;8.468;2024-02-21T12:49:40;10.70;99.90
22065;DHT22;11197;53.110;8.468;2024-02-21T12:52:06;10.70;99.90
22065;DHT22;11197;53.110;8.468;2024-02-21T12:54:32;10.70;99.90
22065;DHT22;11197;53.110;8.468;2024-02-21T12:56:59;10.70;99.90
22065;DHT22;11197;53.110;8.468;2024-02-21T12:59:28;10.70;99.90
22065;DHT22;11197;53.110;8.468;2024-02-21T13:01:54;10.70;99.90
22065;DHT22;11197;53.110;8.468;2024-02-21T13:04:20;10.70;99.90
22065;DHT22;11197;53.110;8.468;2024-02-21T13:06:51;10.70;99.90
22065;DHT22;11197;53.110;8.468;2024-02-21T13:09:17;10.70;99.90
22065;DHT22;11197;53.110;8.468;2024-02-21T13:11:43;10.70;99.90
22065;DHT22;11197;53.110;8.468;2024-02-21T13:14:12;10.70;99.90
22065;DHT22;11197;53.110;8.468;2024-02-21T13:16:38;10.70;99.90
22065;DHT22;11197;53.110;8.468;2024-02-21T13:19:07;10.70;99.90
22065;DHT22;11197;53.110;8.468;2024-02-21T13:21:36;10.70;99.90
22065;DHT22;11197;53.110;8.468;2024-02-21T13:24:02;10.70;99.90
22065;DHT22;11197;53.110;8.468;2024-02-21T13:26:28;10.70;99.90
22065;DHT22;11197;53.110;8.468;2024-02-21T13:28:54;10.70;99.90
22065;DHT22;11197;53.110;8.468;2024-02-21T13:31:20;10.80;99.90
22065;DHT22;11197;53.110;8.468;2024-02-21T13:33:46;10.70;99.90
22065;DHT22;11197;53.110;8.468;2024-02-21T13:36:12;10.70;99.90
22065;DHT22;11197;53.110;8.468;2024-02-21T13:38:38;10.70;99.90
22065;DHT22;11197;53.110;8.468;2024-02-21T13:41:05;10.70;99.90
22065;DHT22;11197;53.110;8.468;2024-02-21T13:43:32;10.70;99.90
22065;DHT22;11197;53.110;8.468;2024-02-21T13:45:59;10.80;99.90
22065;DHT22;11197;53.110;8.468;2024-02-21T13:48:25;10.70;99.90
22065;DHT22;11197;53.110;8.468;2024-02-21T13:50:52;10.80;99.90
22065;DHT22;11197;53.110;8.468;2024-02-21T13:53:18;10.80;99.90
22065;DHT22;11197;53.110;8.468;2024-02-21T13:55:47;10.80;99.90
22065;DHT22;11197;53.110;8.468;2024-02-21T13:58:13;10.80;99.90
22065;DHT22;11197;53.110;8.468;2024-02-21T14:00:39;10.70;99.90
22065;DHT22;11197;53.110;8.468;2024-02-21T14:03:05;10.80;99.90
22065;DHT22;11197;53.110;8.468;2024-02-21T14:05:31;10.70;99.90
22065;DHT22;11197;53.110;8.468;2024-02-21T14:07:57;10.70;99.90
22065;DHT22;11197;53.110;8.468;2024-02-21T14:10:23;10.70;99.90
22065;DHT22;11197;53.110;8.468;2024-02-21T14:12:49;10.70;99.90
22065;DHT22;11197;53.110;8.468;2024-02-21T14:15:15;10.70;99.90
22065;DHT22;11197;53.110;8.468;2024-02-21T14:17:42;10.70;99.90
22065;DHT22;11197;53.110;8.468;2024-02-21T14:20:08;10.70;99.90
22065;DHT22;11197;53.110;8.468;2024-02-21T14:22:34;10.70;99.90
22065;DHT22;11197;53.110;8.468;2024-02-21T14:25:03;10.70;99.90
22065;DHT22;11197;53.110;8.468;2024-02-21T14:27:31;10.70;99.90
22065;DHT22;11197;53.110;8.468;2024-02-21T14:29:57;10.70;99.90
22065;DHT22;11197;53.110;8.468;2024-02-21T14:32:22;10.70;99.90
22065;DHT22;11197;53.110;8.468;2024-02-21T14:34:48;10.70;99.90
22065;DHT22;11197;53.110;8.468;2024-02-21T14:37:15;10.60;99.90
22065;DHT22;11197;53.110;8.468;2024-02-21T14:39:41;10.60;99.90
22065;DHT22;11197;53.110;8.468;2024-02-21T14:42:07;10.60;99.90
22065;DHT22;11197;53.110;8.468;2024-02-21T14:44:35;10.60;99.90
22065;DHT22;11197;53.110;8.468;2024-02-21T14:47:02;10.60;99.90
22065;DHT22;11197;53.110;8.468;2024-02-21T14:49:31;10.60;99.90
22065;DHT22;11197;53.110;8.468;2024-02-21T14:51:57;10.70;99.90
22065;DHT22;11197;53.110;8.468;2024-02-21T14:54:23;10.70;99.90
22065;DHT22;11197;53.110;8.468;2024-02-21T14:56:49;10.70;99.90
22065;DHT22;11197;53.110;8.468;2024-02-21T14:59:15;10.70;99.90
22065;DHT22;11197;53.110;8.468;2024-02-21T15:01:42;10.70;99.90
22065;DHT22;11197;53.110;8.468;2024-02-21T15:04:08;10.60;99.90
22065;DHT22;11197;53.110;8.468;2024-02-21T15:06:34;10.60;99.90
22065;DHT22;11197;53.110;8.468;2024-02-21T15:09:03;10.60;99.90
22065;DHT22;11197;53.110;8.468;2024-02-21T15:11:29;10.60;99.90
22065;DHT22;11197;53.110;8.468;2024-02-21T15:13:55;10.60;99.90
22065;DHT22;11197;53.110;8.468;2024-02-21T15:16:21;10.60;99.90
22065;DHT22;11197;53.110;8.468;2024-02-21T15:18:46;10.70;99.90
22065;DHT22;11197;53.110;8.468;2024-02-21T15:21:12;10.70;99.90
22065;DHT22;11197;53.110;8.468;2024-02-21T15:23:41;10.70;99.90
22065;DHT22;11197;53.110;8.468;2024-02-21T15:26:07;10.70;99.90
22065;DHT22;11197;53.110;8.468;2024-02-21T15:28:32;10.70;99.90
22065;DHT22;11197;53.110;8.468;2024-02-21T15:30:58;10.70;99.90
22065;DHT22;11197;53.110;8.468;2024-02-21T15:33:24;10.70;99.90
22065;DHT22;11197;53.110;8.468;2024-02-21T15:35:51;10.70;99.90
22065;DHT22;11197;53.110;8.468;2024-02-21T15:38:17;10.70;99.90
22065;DHT22;11197;53.110;8.468;2024-02-21T15:40:43;10.70;99.90
22065;DHT22;11197;53.110;8.468;2024-02-21T15:43:08;10.70;99.90
22065;DHT22;11197;53.110;8.468;2024-02-21T15:45:34;10.70;99.90
22065;DHT22;11197;53.110;8.468;2024-02-21T15:48:00;10.70;99.90
22065;DHT22;11197;53.110;8.468;2024-02-21T15:50:26;10.70;99.90